createdAt,value
2023-01-21T00:00:57.569Z,66.72
2023-01-21T00:03:25.128Z,72.97
2023-01-21T00:05:52.582Z,72.78
2023-01-21T00:08:19.948Z,69.60
2023-01-21T00:10:47.299Z,73.60
2023-01-21T00:13:14.683Z,84.13
2023-01-21T00:15:42.112Z,77.35
2023-01-21T00:18:10.803Z,66.45
2023-01-21T00:20:38.199Z,74.50
2023-01-21T00:23:05.697Z,71.90
2023-01-21T00:25:33.061Z,71.38
2023-01-21T00:28:00.790Z,77.70
2023-01-21T00:30:28.274Z,76.55
2023-01-21T00:32:55.739Z,81.70
2023-01-21T00:35:24.438Z,74.18
2023-01-21T00:37:51.927Z,75.85
2023-01-21T00:40:19.347Z,77.72
2023-01-21T00:42:46.714Z,75.75
2023-01-21T00:45:14.114Z,76.07
2023-01-21T00:47:41.550Z,75.20
2023-01-21T00:50:09.688Z,77.72
2023-01-21T00:52:38.752Z,78.90
2023-01-21T00:55:06.509Z,65.38
2023-01-21T00:57:34.177Z,74.30
2023-01-21T01:00:01.677Z,67.85
2023-01-21T01:02:29.090Z,78.80
2023-01-21T01:04:56.455Z,69.05
2023-01-21T01:07:23.853Z,70.88
2023-01-21T01:09:52.611Z,75.57
2023-01-21T01:12:20.004Z,71.85
2023-01-21T01:14:47.793Z,68.20
2023-01-21T01:19:42.381Z,71.78
2023-01-21T01:22:09.718Z,75.30
2023-01-21T01:24:37.090Z,79.10
2023-01-21T01:27:05.854Z,65.75
2023-01-21T01:29:33.279Z,64.80
2023-01-21T01:32:00.695Z,69.93
2023-01-21T01:34:28.039Z,79.13
2023-01-21T01:36:55.395Z,72.47
2023-01-21T01:39:22.785Z,70.63
2023-01-21T01:41:50.127Z,71.30
2023-01-21T01:44:36.333Z,80.22
2023-01-21T01:47:05.366Z,69.07
2023-01-21T01:49:32.764Z,67.95
2023-01-21T01:52:02.465Z,79.88
2023-01-21T01:54:31.008Z,77.22
2023-01-21T01:57:00.873Z,72.32
2023-01-21T01:59:28.705Z,80.43
2023-01-21T02:01:56.635Z,75.53
2023-01-21T02:04:28.148Z,80.80
2023-01-21T02:06:56.107Z,79.22
2023-01-21T02:09:27.808Z,77.55
2023-01-21T02:11:55.184Z,90.72
2023-01-21T02:14:22.575Z,91.40
2023-01-21T02:17:01.227Z,83.03
2023-01-21T02:19:49.403Z,79.72
2023-01-21T02:22:22.379Z,74.20
2023-01-21T02:25:00.687Z,81.38
2023-01-21T02:27:40.385Z,81.50
2023-01-21T02:30:25.779Z,79.03
2023-01-21T02:33:26.412Z,79.30
2023-01-21T02:36:00.667Z,73.15
2023-01-21T02:38:30.808Z,80.38
2023-01-21T02:41:02.426Z,71.93
2023-01-21T02:43:33.227Z,69.13
2023-01-21T02:46:04.041Z,79.70
2023-01-21T02:48:34.053Z,77.20
2023-01-21T02:51:03.064Z,68.63
2023-01-21T02:53:31.459Z,68.30
2023-01-21T02:56:06.503Z,72.18
2023-01-21T02:58:34.983Z,82.20
2023-01-21T03:01:10.571Z,74.10
2023-01-21T03:03:55.976Z,89.90
2023-01-21T03:06:44.178Z,73.68
2023-01-21T03:09:18.023Z,72.28
2023-01-21T03:11:49.599Z,67.70
2023-01-21T03:14:36.666Z,78.40
2023-01-21T03:17:07.279Z,75.65
2023-01-21T03:19:37.260Z,74.43
2023-01-21T03:22:09.238Z,76.65
2023-01-21T03:24:37.478Z,80.88
2023-01-21T03:27:06.408Z,73.32
2023-01-21T03:29:34.869Z,73.82
2023-01-21T03:32:05.065Z,74.38
2023-01-21T03:34:35.046Z,77.82
2023-01-21T03:37:04.768Z,71.90
2023-01-21T03:39:37.206Z,74.30
2023-01-21T03:42:04.753Z,73.65
2023-01-21T03:44:32.237Z,73.63
2023-01-21T03:47:02.588Z,69.72
2023-01-21T03:49:33.187Z,81.35
2023-01-21T03:52:02.232Z,75.50
2023-01-21T03:54:29.736Z,73.60
2023-01-21T03:56:58.467Z,77.10
2023-01-21T03:59:26.047Z,69.85
2023-01-21T04:01:54.819Z,77.03
2023-01-21T04:04:22.180Z,78.55
2023-01-21T04:06:49.517Z,73.40
2023-01-21T04:09:16.848Z,81.95
2023-01-21T04:11:44.201Z,74.30
2023-01-21T04:14:12.911Z,77.22
2023-01-21T04:16:40.306Z,82.10
2023-01-21T04:19:07.698Z,80.72
2023-01-21T04:21:35.072Z,68.10
2023-01-21T04:24:02.448Z,80.72
2023-01-21T04:26:29.795Z,74.20
2023-01-21T04:28:57.187Z,79.50
2023-01-21T04:31:26.014Z,77.60
2023-01-21T04:33:53.588Z,70.80
2023-01-21T04:36:20.977Z,79.70
2023-01-21T04:38:48.301Z,70.38
2023-01-21T04:41:15.668Z,72.80
2023-01-21T04:43:43.012Z,77.10
2023-01-21T04:46:10.424Z,74.18
2023-01-21T04:48:39.144Z,70.88
2023-01-21T04:51:06.700Z,76.40
2023-01-21T04:53:34.085Z,73.53
2023-01-21T04:56:01.556Z,75.38
2023-01-21T04:58:29.019Z,77.10
2023-01-21T05:00:56.771Z,80.53
2023-01-21T05:03:24.408Z,75.18
2023-01-21T05:05:53.111Z,90.47
2023-01-21T05:08:20.437Z,76.97
2023-01-21T05:10:47.797Z,83.07
2023-01-21T05:13:15.145Z,75.07
2023-01-21T05:15:42.510Z,79.70
2023-01-21T05:18:09.994Z,71.53
2023-01-21T05:20:37.348Z,78.15
2023-01-21T05:23:06.083Z,70.53
2023-01-21T05:25:33.449Z,78.57
2023-01-21T05:28:00.793Z,75.60
2023-01-21T05:30:28.247Z,73.22
2023-01-21T05:32:56.040Z,79.10
2023-01-21T05:35:24.495Z,67.78
2023-01-21T05:37:51.867Z,76.07
2023-01-21T05:40:20.856Z,68.88
2023-01-21T05:42:48.217Z,74.60
2023-01-21T05:45:15.613Z,73.22
2023-01-21T05:47:43.013Z,85.68
2023-01-21T05:50:11.047Z,79.30
2023-01-21T05:52:38.413Z,67.03
2023-01-21T05:55:06.525Z,73.50
2023-01-21T05:57:35.317Z,73.78
2023-01-21T06:00:02.682Z,67.78
2023-01-21T06:02:32.366Z,79.20
2023-01-21T06:04:59.818Z,79.53
2023-01-21T06:07:27.177Z,88.88
2023-01-21T06:09:54.554Z,69.63
2023-01-21T06:12:23.906Z,65.40
2023-01-21T06:14:53.608Z,72.00
2023-01-21T06:17:21.151Z,73.07
2023-01-21T06:22:16.233Z,72.93
2023-01-21T06:24:43.615Z,77.55
2023-01-21T06:27:11.081Z,74.55
2023-01-21T06:29:38.513Z,75.30
2023-01-21T06:32:07.615Z,74.97
2023-01-21T06:34:35.026Z,82.90
2023-01-21T06:37:02.407Z,72.18
2023-01-21T06:39:29.806Z,74.93
2023-01-21T06:41:57.166Z,79.53
2023-01-21T06:44:24.553Z,80.00
2023-01-21T06:47:00.634Z,81.85
2023-01-21T06:49:29.803Z,96.97
2023-01-21T06:51:57.307Z,87.45
2023-01-21T06:54:24.695Z,96.03
2023-01-21T06:56:52.072Z,85.72
2023-01-21T06:59:19.521Z,93.32
2023-01-21T07:01:46.967Z,91.68
2023-01-21T07:04:14.630Z,99.93
2023-01-21T07:06:43.355Z,104.03
2023-01-21T07:09:10.725Z,103.88
2023-01-21T07:11:38.074Z,104.35
2023-01-21T07:14:05.439Z,98.55
2023-01-21T07:16:32.808Z,105.78
2023-01-21T07:19:00.182Z,104.57
2023-01-21T07:21:27.605Z,98.45
2023-01-21T07:23:56.791Z,103.40
2023-01-21T07:26:24.398Z,107.18
2023-01-21T07:28:51.703Z,103.80
2023-01-21T07:31:19.128Z,98.22
2023-01-21T07:33:46.521Z,112.82
2023-01-21T07:36:13.892Z,99.22
2023-01-21T07:38:41.421Z,96.05
2023-01-21T07:41:10.127Z,98.43
2023-01-21T07:43:37.520Z,101.57
2023-01-21T07:46:05.020Z,103.18
2023-01-21T07:48:32.514Z,104.18
2023-01-21T07:51:00.052Z,104.35
2023-01-21T07:55:54.786Z,101.25
2023-01-21T07:58:23.524Z,100.00
2023-01-21T08:00:50.869Z,95.97
2023-01-21T08:03:21.745Z,86.10
2023-01-21T08:05:50.869Z,93.90
2023-01-21T08:08:18.265Z,93.25
2023-01-21T08:10:45.610Z,94.05
2023-01-21T08:13:12.973Z,110.53
2023-01-21T08:15:41.648Z,93.32
2023-01-21T08:18:08.981Z,104.13
2023-01-21T08:20:36.386Z,95.30
2023-01-21T08:23:03.947Z,99.05
2023-01-21T08:25:31.293Z,99.53
2023-01-21T08:27:59.323Z,94.32
2023-01-21T08:30:26.740Z,86.28
2023-01-21T08:32:55.470Z,95.72
2023-01-21T08:35:22.828Z,79.45
2023-01-21T08:37:50.212Z,80.50
2023-01-21T08:40:17.745Z,87.55
2023-01-21T08:42:45.096Z,87.68
2023-01-21T08:45:15.137Z,93.30
2023-01-21T08:47:42.858Z,91.93
2023-01-21T08:50:12.125Z,91.90
2023-01-21T08:52:39.511Z,91.00
2023-01-21T08:55:07.383Z,91.85
2023-01-21T08:57:34.771Z,87.25
2023-01-21T09:00:02.137Z,93.75
2023-01-21T09:02:29.643Z,77.90
2023-01-21T09:04:57.061Z,99.05
2023-01-21T09:07:25.780Z,91.85
2023-01-21T09:09:53.111Z,92.57
2023-01-21T09:12:20.503Z,89.78
2023-01-21T09:14:47.827Z,90.47
2023-01-21T09:17:15.305Z,93.90
2023-01-21T09:19:42.737Z,101.40
2023-01-21T09:22:10.294Z,91.70
2023-01-21T09:24:39.008Z,86.95
2023-01-21T09:27:06.940Z,90.40
2023-01-21T09:29:34.509Z,81.88
2023-01-21T09:32:02.282Z,90.78
2023-01-21T09:34:29.761Z,91.50
2023-01-21T09:36:57.358Z,85.88
2023-01-21T09:39:24.817Z,90.32
2023-01-21T09:41:54.633Z,90.18
2023-01-21T09:44:25.523Z,96.03
2023-01-21T09:46:55.843Z,84.95
2023-01-21T09:49:25.096Z,92.35
2023-01-21T09:51:55.151Z,87.50
2023-01-21T09:54:26.347Z,92.85
2023-01-21T09:57:08.603Z,93.85
2023-01-21T09:59:43.842Z,84.60
2023-01-21T10:02:17.698Z,86.78
2023-01-21T10:04:48.868Z,88.13
2023-01-21T10:07:18.297Z,89.75
2023-01-21T10:09:53.651Z,89.15
2023-01-21T10:12:29.549Z,87.00
2023-01-21T10:15:18.391Z,85.90
2023-01-21T10:17:52.244Z,83.57
2023-01-21T10:20:23.474Z,86.70
2023-01-21T10:22:53.573Z,79.75
2023-01-21T10:25:25.187Z,90.85
2023-01-21T10:27:53.756Z,95.28
2023-01-21T10:30:23.187Z,90.72
2023-01-21T10:32:53.514Z,91.57
2023-01-21T10:35:25.514Z,91.20
2023-01-21T10:37:57.817Z,94.18
2023-01-21T10:40:43.519Z,87.35
2023-01-21T10:43:13.518Z,85.05
2023-01-21T10:45:44.786Z,82.53
2023-01-21T10:48:16.497Z,79.68
2023-01-21T10:50:48.450Z,83.30
2023-01-21T10:53:21.261Z,89.93
2023-01-21T10:56:09.807Z,78.75
2023-01-21T10:58:38.972Z,90.47
2023-01-21T11:01:08.640Z,85.85
2023-01-21T11:03:41.179Z,89.50
2023-01-21T11:06:10.713Z,84.07
2023-01-21T11:08:38.135Z,79.55
2023-01-21T11:11:07.333Z,83.82
2023-01-21T11:13:34.771Z,91.40
2023-01-21T11:16:04.110Z,87.93
2023-01-21T11:18:33.009Z,94.97
2023-01-21T11:21:03.104Z,87.70
2023-01-21T11:23:31.441Z,82.90
2023-01-21T11:26:02.934Z,80.40
2023-01-21T11:28:31.123Z,90.63
2023-01-21T11:31:16.485Z,86.90
2023-01-21T11:33:44.393Z,88.45
2023-01-21T11:36:15.052Z,82.93
2023-01-21T11:38:42.515Z,86.85
2023-01-21T11:41:17.094Z,80.22
2023-01-21T11:43:45.583Z,87.28
2023-01-21T11:46:23.421Z,78.78
2023-01-21T11:48:50.939Z,82.80
2023-01-21T11:51:19.687Z,80.47
2023-01-21T11:53:47.532Z,79.82
2023-01-21T11:58:42.765Z,83.82
2023-01-21T12:01:12.739Z,79.20
2023-01-21T12:03:43.303Z,79.63
2023-01-21T12:06:11.408Z,80.20
2023-01-21T12:08:41.219Z,73.97
2023-01-21T12:11:08.939Z,80.38
2023-01-21T12:13:40.318Z,73.43
2023-01-21T12:16:27.434Z,68.68
2023-01-21T12:19:09.911Z,75.38
2023-01-21T12:21:44.715Z,71.15
2023-01-21T12:24:19.809Z,62.70
2023-01-21T12:26:49.317Z,64.88
2023-01-21T12:29:26.821Z,69.55
2023-01-21T12:31:57.422Z,71.28
2023-01-21T12:34:27.747Z,61.28
2023-01-21T12:36:56.980Z,59.42
2023-01-21T12:39:27.458Z,64.88
2023-01-21T12:42:01.441Z,62.55
2023-01-21T12:44:30.769Z,58.75
2023-01-21T12:47:02.056Z,60.65
2023-01-21T12:49:44.903Z,62.42
2023-01-21T12:52:15.407Z,66.55
2023-01-21T12:54:46.669Z,58.22
2023-01-21T12:57:17.770Z,53.20
2023-01-21T12:59:47.918Z,61.60
2023-01-21T13:02:19.405Z,54.45
2023-01-21T13:04:50.094Z,58.05
2023-01-21T13:07:26.488Z,57.00
2023-01-21T13:09:59.331Z,59.35
2023-01-21T13:12:29.518Z,54.92
2023-01-21T13:15:00.700Z,53.63
2023-01-21T13:17:29.936Z,57.33
2023-01-21T13:19:59.037Z,60.50
2023-01-21T13:22:34.654Z,53.75
2023-01-21T13:25:05.768Z,54.95
2023-01-21T13:27:38.072Z,49.20
2023-01-21T13:30:10.642Z,54.65
2023-01-21T13:32:42.395Z,53.00
2023-01-21T13:35:18.401Z,54.47
2023-01-21T13:37:51.150Z,51.05
2023-01-21T13:40:26.593Z,49.72
2023-01-21T13:43:00.091Z,47.33
2023-01-21T13:45:31.482Z,49.35
2023-01-21T13:48:05.567Z,42.47
2023-01-21T13:50:39.518Z,43.97
2023-01-21T13:53:14.205Z,43.30
2023-01-21T13:55:49.357Z,47.60
2023-01-21T13:58:20.676Z,39.97
2023-01-21T14:00:54.412Z,42.63
2023-01-21T14:03:25.128Z,45.05
2023-01-21T14:05:55.264Z,47.60
2023-01-21T14:08:26.013Z,55.53
2023-01-21T14:10:56.633Z,47.42
2023-01-21T14:13:36.512Z,49.85
2023-01-21T14:16:13.743Z,50.10
2023-01-21T14:18:48.746Z,48.95
2023-01-21T14:21:23.582Z,45.67
2023-01-21T14:23:56.219Z,50.72
2023-01-21T14:26:33.953Z,46.80
2023-01-21T14:31:33.516Z,49.50
2023-01-21T14:34:04.030Z,46.80
2023-01-21T14:36:37.748Z,49.80
2023-01-21T14:39:08.163Z,42.88
2023-01-21T14:41:59.429Z,47.13
2023-01-21T14:44:38.659Z,43.38
2023-01-21T14:47:27.189Z,44.20
2023-01-21T14:49:55.107Z,39.15
2023-01-21T14:54:49.784Z,43.72
2023-01-21T14:57:24.137Z,46.63
2023-01-21T14:59:53.462Z,40.33
2023-01-21T15:02:24.221Z,40.80
2023-01-21T15:04:56.210Z,40.20
2023-01-21T15:07:24.452Z,47.35
2023-01-21T15:09:54.189Z,37.60
2023-01-21T15:12:23.352Z,43.20
2023-01-21T15:14:50.963Z,43.05
2023-01-21T15:17:37.201Z,241.35
2023-01-21T15:20:19.445Z,52.70
2023-01-21T15:23:03.892Z,42.03
2023-01-21T15:25:36.798Z,41.42
2023-01-21T15:28:38.135Z,41.42
2023-01-21T15:31:07.316Z,39.60
2023-01-21T15:33:36.728Z,38.20
2023-01-21T15:36:04.671Z,35.17
2023-01-21T15:38:40.264Z,34.97
2023-01-21T15:41:10.752Z,32.40
2023-01-21T15:43:43.452Z,32.72
2023-01-21T15:46:18.942Z,33.63
2023-01-21T15:48:53.724Z,34.58
2023-01-21T15:51:29.528Z,37.63
2023-01-21T15:54:03.956Z,30.10
2023-01-21T15:56:41.806Z,33.75
2023-01-21T15:59:19.795Z,33.78
2023-01-21T16:01:49.750Z,31.17
2023-01-21T16:04:26.258Z,23.15
2023-01-21T16:07:04.392Z,27.10
2023-01-21T16:09:38.380Z,28.15
2023-01-21T16:12:11.805Z,28.90
2023-01-21T16:14:43.761Z,32.28
2023-01-21T16:17:16.675Z,33.50
2023-01-21T16:19:46.094Z,27.80
2023-01-21T16:22:14.732Z,30.48
2023-01-21T16:24:47.296Z,35.90
2023-01-21T16:27:18.628Z,37.03
2023-01-21T16:29:45.997Z,35.70
2023-01-21T16:32:17.533Z,37.30
2023-01-21T16:34:45.213Z,33.85
2023-01-21T16:37:13.401Z,36.50
2023-01-21T16:39:41.023Z,35.20
2023-01-21T16:42:22.095Z,39.63
2023-01-21T16:44:49.690Z,32.22
2023-01-21T16:47:19.209Z,35.13
2023-01-21T16:49:46.563Z,41.47
2023-01-21T16:52:19.755Z,35.47
2023-01-21T16:54:50.607Z,39.08
2023-01-21T16:57:24.119Z,34.97
2023-01-21T16:59:52.805Z,37.17
2023-01-21T17:02:21.916Z,37.35
2023-01-21T17:04:49.614Z,35.92
2023-01-21T17:07:18.448Z,42.08
2023-01-21T17:09:45.874Z,43.15
2023-01-21T17:12:23.794Z,36.03
2023-01-21T17:14:56.790Z,41.25
2023-01-21T17:17:24.569Z,38.17
2023-01-21T17:19:52.178Z,38.33
2023-01-21T17:22:21.203Z,43.00
2023-01-21T17:24:56.403Z,42.55
2023-01-21T17:27:26.168Z,39.90
2023-01-21T17:29:53.598Z,48.13
2023-01-21T17:32:26.607Z,41.88
2023-01-21T17:35:04.539Z,47.05
2023-01-21T17:37:45.499Z,100.82
2023-01-21T17:40:26.160Z,60.17
2023-01-21T17:42:53.905Z,50.75
2023-01-21T17:45:25.338Z,46.83
2023-01-21T17:48:08.650Z,49.10
2023-01-21T17:50:37.778Z,53.00
2023-01-21T17:53:06.989Z,55.78
2023-01-21T17:55:35.081Z,47.72
2023-01-21T17:58:05.433Z,54.63
2023-01-21T18:00:36.772Z,47.72
2023-01-21T18:03:05.939Z,47.85
2023-01-21T18:05:33.390Z,48.28
2023-01-21T18:08:00.889Z,52.30
2023-01-21T18:10:29.639Z,48.72
2023-01-21T18:12:58.104Z,48.90
2023-01-21T18:15:25.669Z,52.70
2023-01-21T18:17:53.935Z,50.63
2023-01-21T18:20:23.740Z,49.65
2023-01-21T18:22:51.249Z,47.85
2023-01-21T18:25:18.963Z,44.40
2023-01-21T18:27:47.194Z,49.03
2023-01-21T18:30:15.484Z,51.45
2023-01-21T18:32:42.959Z,47.67
2023-01-21T18:35:10.498Z,53.63
2023-01-21T18:37:39.168Z,53.35
2023-01-21T18:40:07.276Z,55.75
2023-01-21T18:42:34.642Z,49.50
2023-01-21T18:45:02.002Z,56.50
2023-01-21T18:47:29.380Z,60.33
2023-01-21T18:49:57.748Z,59.25
2023-01-21T18:52:26.680Z,51.45
2023-01-21T18:54:55.582Z,54.63
2023-01-21T18:57:23.417Z,63.58
2023-01-21T19:02:18.959Z,49.17
2023-01-21T19:04:46.728Z,52.65
2023-01-21T19:07:15.271Z,57.50
2023-01-21T19:09:45.762Z,57.58
2023-01-21T19:12:16.681Z,56.17
2023-01-21T19:14:44.038Z,62.97
2023-01-21T19:17:12.029Z,65.03
2023-01-21T19:19:39.484Z,61.35
2023-01-21T19:22:06.845Z,57.88
2023-01-21T19:24:34.253Z,61.83
2023-01-21T19:27:01.615Z,66.85
2023-01-21T19:29:30.464Z,62.67
2023-01-21T19:31:57.841Z,60.45
2023-01-21T19:34:26.576Z,63.50
2023-01-21T19:36:53.974Z,59.40
2023-01-21T19:39:23.043Z,61.17
2023-01-21T19:42:03.441Z,63.25
2023-01-21T19:44:36.222Z,63.63
2023-01-21T19:47:03.639Z,60.83
2023-01-21T19:49:30.998Z,62.80
2023-01-21T19:51:58.316Z,64.47
2023-01-21T19:54:25.665Z,63.05
2023-01-21T19:56:53.114Z,64.35
2023-01-21T19:59:20.504Z,63.92
2023-01-21T20:01:50.708Z,63.30
2023-01-21T20:04:18.123Z,62.47
2023-01-21T20:06:46.326Z,68.80
2023-01-21T20:09:17.591Z,66.03
2023-01-21T20:11:45.027Z,63.45
2023-01-21T20:14:14.034Z,64.78
2023-01-21T20:16:44.701Z,72.00
2023-01-21T20:19:15.209Z,62.22
2023-01-21T20:21:59.555Z,65.85
2023-01-21T20:24:30.001Z,55.40
2023-01-21T20:26:57.539Z,63.20
2023-01-21T20:29:26.755Z,57.60
2023-01-21T20:31:54.338Z,60.88
2023-01-21T20:34:23.202Z,70.68
2023-01-21T20:36:51.740Z,64.57
2023-01-21T20:39:19.457Z,64.18
2023-01-21T20:41:46.813Z,65.70
2023-01-21T20:44:14.214Z,65.45
2023-01-21T20:46:43.240Z,58.15
2023-01-21T20:49:11.224Z,57.90
2023-01-21T20:51:39.967Z,69.00
2023-01-21T20:54:07.311Z,61.75
2023-01-21T20:56:34.738Z,58.92
2023-01-21T20:59:02.112Z,67.68
2023-01-21T21:01:31.024Z,56.17
2023-01-21T21:03:58.469Z,58.45
2023-01-21T21:06:26.997Z,59.45
2023-01-21T21:08:55.864Z,53.72
2023-01-21T21:11:23.399Z,52.00
2023-01-21T21:13:51.933Z,53.65
2023-01-21T21:16:20.584Z,54.97
2023-01-21T21:18:48.414Z,64.43
2023-01-21T21:23:46.288Z,50.30
2023-01-21T21:26:18.283Z,50.08
2023-01-21T21:28:46.427Z,49.17
2023-01-21T21:31:14.660Z,51.20
2023-01-21T21:33:42.606Z,53.03
2023-01-21T21:38:37.292Z,45.33
2023-01-21T21:41:25.855Z,47.30
2023-01-21T21:43:53.651Z,51.75
2023-01-21T21:46:38.539Z,47.20
2023-01-21T21:49:05.901Z,53.83
2023-01-21T21:51:35.135Z,51.80
2023-01-21T21:54:02.492Z,47.00
2023-01-21T21:56:29.852Z,47.47
2023-01-21T21:58:58.541Z,46.05
2023-01-21T22:01:28.160Z,48.75
2023-01-21T22:03:56.795Z,46.35
2023-01-21T22:06:24.143Z,49.22
2023-01-21T22:08:53.836Z,49.53
2023-01-21T22:11:22.215Z,47.65
2023-01-21T22:13:50.592Z,45.58
2023-01-21T22:16:20.350Z,49.05
2023-01-21T22:18:47.911Z,49.50
2023-01-21T22:21:16.284Z,53.83
2023-01-21T22:23:44.112Z,48.22
2023-01-21T22:28:40.604Z,51.72
2023-01-21T22:31:09.041Z,53.78
2023-01-21T22:33:38.245Z,56.08
2023-01-21T22:36:06.353Z,60.67
2023-01-21T22:38:34.154Z,59.95
2023-01-21T22:43:28.868Z,50.15
2023-01-21T22:45:56.874Z,46.83
2023-01-21T22:48:24.509Z,49.67
2023-01-21T22:50:54.410Z,50.63
2023-01-21T22:53:22.121Z,51.80
2023-01-21T22:55:53.501Z,51.13
2023-01-21T22:58:21.063Z,55.92
2023-01-21T23:00:48.443Z,53.40
2023-01-21T23:03:15.858Z,140.13
2023-01-21T23:05:43.303Z,65.95
2023-01-21T23:08:12.084Z,56.45
2023-01-21T23:10:40.158Z,48.38
2023-01-21T23:13:07.513Z,54.00
2023-01-21T23:15:34.877Z,45.72
2023-01-21T23:18:02.248Z,47.55
2023-01-21T23:20:29.615Z,52.05
2023-01-21T23:22:57.143Z,52.03
2023-01-21T23:25:26.186Z,53.92
2023-01-21T23:27:53.602Z,45.25
2023-01-21T23:30:21.151Z,50.58
2023-01-21T23:32:48.455Z,45.60
2023-01-21T23:35:15.899Z,50.78
2023-01-21T23:37:43.262Z,44.40
2023-01-21T23:40:11.199Z,45.53
2023-01-21T23:42:40.751Z,42.08
2023-01-21T23:45:08.432Z,37.78
2023-01-21T23:47:35.787Z,35.08
2023-01-21T23:50:08.320Z,39.47
2023-01-21T23:52:35.860Z,46.30
2023-01-21T23:55:03.317Z,41.60
2023-01-21T23:57:30.724Z,41.42
2023-01-21T23:59:59.593Z,40.83
